Time,TemperatureF,DewpointF,PressureIn,WindDirection,WindDirectionDegrees,WindSpeedMPH,WindSpeedGustMPH,Humidity,HourlyPrecipIn,Conditions,Clouds,dailyrainin,SoftwareType,DateUTC
2013-05-26 00:01:00,74.8,43.0,30.27,NE,56,2.7,2.7,32,0.00,,---,0.00,VWS V14.01,2013-05-26 04:01:00,
2013-05-26 00:02:00,74.8,43.0,30.27,ENE,69,0.0,2.2,32,0.00,,---,0.00,VWS V14.01,2013-05-26 04:02:00,
2013-05-26 00:07:00,74.7,42.9,30.27,ENE,76,0.0,0.0,32,0.00,,---,0.00,VWS V14.01,2013-05-26 04:07:00,
2013-05-26 00:13:00,74.5,42.7,30.27,ENE,60,2.2,2.2,32,0.00,,---,0.00,VWS V14.01,2013-05-26 04:13:00,
2013-05-26 00:18:00,74.5,42.7,30.27,ENE,73,0.0,0.0,32,0.00,,---,0.00,VWS V14.01,2013-05-26 04:18:00,
2013-05-26 00:23:00,74.5,42.7,30.27,ENE,70,0.0,0.0,32,0.00,,---,0.00,VWS V14.01,2013-05-26 04:23:00,
2013-05-26 00:28:00,74.5,42.7,30.30,ENE,71,2.2,2.7,32,0.00,,---,0.00,VWS V14.01,2013-05-26 04:28:00,
2013-05-26 00:33:00,74.3,43.4,30.30,ENE,64,0.0,3.1,33,0.00,,---,0.00,VWS V14.01,2013-05-26 04:33:00,
2013-05-26 00:38:00,74.1,43.2,30.30,ENE,62,0.0,3.1,33,0.00,,---,0.00,VWS V14.01,2013-05-26 04:38:00,
2013-05-26 00:43:00,73.9,43.0,30.27,NE,51,2.2,2.7,33,0.00,,---,0.00,VWS V14.01,2013-05-26 04:43:00,
2013-05-26 00:48:00,74.1,43.2,30.27,ENE,62,0.0,2.2,33,0.00,,---,0.00,VWS V14.01,2013-05-26 04:48:00,
2013-05-26 00:53:00,73.9,43.0,30.27,ENE,63,0.0,0.0,33,0.00,,---,0.00,VWS V14.01,2013-05-26 04:53:00,
2013-05-26 00:58:00,73.9,43.0,30.27,East,81,0.0,2.2,33,0.00,,---,0.00,VWS V14.01,2013-05-26 04:58:00,
2013-05-26 01:03:00,73.8,42.9,30.27,ENE,72,0.0,0.0,33,0.00,,---,0.00,VWS V14.01,2013-05-26 05:03:00,
2013-05-26 01:08:00,73.6,42.7,30.27,ENE,69,0.0,0.0,33,0.00,,---,0.00,VWS V14.01,2013-05-26 05:08:00,
2013-05-26 01:14:00,73.2,43.2,30.27,ENE,71,0.0,0.0,34,0.00,,---,0.00,VWS V14.01,2013-05-26 05:14:00,
2013-05-26 01:19:00,72.9,42.9,30.27,ENE,71,0.0,0.0,34,0.00,,---,0.00,VWS V14.01,2013-05-26 05:19:00,
2013-05-26 01:24:00,72.7,42.7,30.27,ENE,71,0.0,0.0,34,0.00,,---,0.00,VWS V14.01,2013-05-26 05:24:00,
2013-05-26 01:29:00,72.7,43.5,30.27,ENE,73,0.0,0.0,35,0.00,,---,0.00,VWS V14.01,2013-05-26 05:29:00,
2013-05-26 01:34:00,72.5,43.3,30.27,ENE,73,0.0,0.0,35,0.00,,---,0.00,VWS V14.01,2013-05-26 05:34:00,
2013-05-26 01:39:00,72.3,43.2,30.27,ENE,65,0.0,0.0,35,0.00,,---,0.00,VWS V14.01,2013-05-26 05:39:00,
2013-05-26 01:44:00,72.3,42.4,30.27,NE,47,0.0,0.0,34,0.00,,---,0.00,VWS V14.01,2013-05-26 05:44:00,
2013-05-26 01:49:00,72.3,43.2,30.27,NE,42,0.0,0.0,35,0.00,,---,0.00,VWS V14.01,2013-05-26 05:49:00,
2013-05-26 01:54:00,72.1,43.0,30.27,ENE,61,0.0,0.0,35,0.00,,---,0.00,VWS V14.01,2013-05-26 05:54:00,
2013-05-26 01:59:00,71.4,43.1,30.27,ENE,61,0.0,0.0,36,0.00,,---,0.00,VWS V14.01,2013-05-26 05:59:00,
2013-05-26 02:04:00,71.2,42.9,30.27,ENE,61,0.0,0.0,36,0.00,,---,0.00,VWS V14.01,2013-05-26 06:04:00,
2013-05-26 02:09:00,70.9,43.3,30.27,ENE,61,0.0,0.0,37,0.00,,---,0.00,VWS V14.01,2013-05-26 06:09:00,
2013-05-26 02:14:00,70.7,43.9,30.27,ENE,61,0.0,0.0,38,0.00,,---,0.00,VWS V14.01,2013-05-26 06:14:00,
2013-05-26 02:20:00,70.7,44.5,30.27,ENE,61,0.0,0.0,39,0.00,,---,0.00,VWS V14.01,2013-05-26 06:20:00,
2013-05-26 02:25:00,70.5,45.1,30.27,ENE,61,0.0,0.0,40,0.00,,---,0.00,VWS V14.01,2013-05-26 06:25:00,
2013-05-26 02:30:00,70.3,44.9,30.27,ENE,61,0.0,0.0,40,0.00,,---,0.00,VWS V14.01,2013-05-26 06:30:00,
2013-05-26 02:35:00,69.8,44.4,30.27,ENE,61,0.0,0.0,40,0.00,,---,0.00,VWS V14.01,2013-05-26 06:35:00,
2013-05-26 02:40:00,69.8,44.4,30.24,ENE,61,0.0,0.0,40,0.00,,---,0.00,VWS V14.01,2013-05-26 06:40:00,
2013-05-26 02:45:00,69.6,44.9,30.24,ENE,61,0.0,0.0,41,0.00,,---,0.00,VWS V14.01,2013-05-26 06:45:00,
2013-05-26 02:50:00,69.6,45.5,30.24,ENE,61,0.0,0.0,42,0.00,,---,0.00,VWS V14.01,2013-05-26 06:50:00,
2013-05-26 02:55:00,69.6,45.5,30.24,ENE,61,0.0,0.0,42,0.00,,---,0.00,VWS V14.01,2013-05-26 06:55:00,
2013-05-26 03:00:00,69.6,45.5,30.24,ENE,61,0.0,0.0,42,0.00,,---,0.00,VWS V14.01,2013-05-26 07:00:00,
2013-05-26 03:05:00,69.6,45.5,30.24,NNE,23,0.0,0.0,42,0.00,,---,0.00,VWS V14.01,2013-05-26 07:05:00,
2013-05-26 03:10:00,69.8,43.8,30.24,North,2,0.0,0.0,39,0.00,,---,0.00,VWS V14.01,2013-05-26 07:10:00,
2013-05-26 03:15:00,70.0,42.5,30.24,North,2,0.0,0.0,37,0.00,,---,0.00,VWS V14.01,2013-05-26 07:15:00,
2013-05-26 03:21:00,70.2,42.0,30.24,North,2,0.0,0.0,36,0.00,,---,0.00,VWS V14.01,2013-05-26 07:21:00,
2013-05-26 03:26:00,70.3,41.4,30.24,North,2,0.0,0.0,35,0.00,,---,0.00,VWS V14.01,2013-05-26 07:26:00,
2013-05-26 03:31:00,70.3,42.2,30.24,North,2,0.0,0.0,36,0.00,,---,0.00,VWS V14.01,2013-05-26 07:31:00,
2013-05-26 03:36:00,70.2,42.0,30.24,North,2,0.0,0.0,36,0.00,,---,0.00,VWS V14.01,2013-05-26 07:36:00,
2013-05-26 03:41:00,69.8,41.7,30.24,North,2,0.0,0.0,36,0.00,,---,0.00,VWS V14.01,2013-05-26 07:41:00,
2013-05-26 03:46:00,69.6,42.2,30.24,North,2,0.0,0.0,37,0.00,,---,0.00,VWS V14.01,2013-05-26 07:46:00,
2013-05-26 03:51:00,69.3,42.6,30.24,North,2,0.0,0.0,38,0.00,,---,0.00,VWS V14.01,2013-05-26 07:51:00,
2013-05-26 03:56:00,69.3,42.6,30.24,North,2,0.0,0.0,38,0.00,,---,0.00,VWS V14.01,2013-05-26 07:56:00,
2013-05-26 04:01:00,69.3,42.6,30.24,North,2,0.0,0.0,38,0.00,,---,0.00,VWS V14.01,2013-05-26 08:01:00,
2013-05-26 04:06:00,69.3,42.6,30.24,North,2,0.0,0.0,38,0.00,,---,0.00,VWS V14.01,2013-05-26 08:06:00,
2013-05-26 04:11:00,69.3,42.6,30.24,North,2,0.0,0.0,38,0.00,,---,0.00,VWS V14.01,2013-05-26 08:11:00,
2013-05-26 04:16:00,69.3,42.6,30.24,North,2,0.0,0.0,38,0.00,,---,0.00,VWS V14.01,2013-05-26 08:16:00,
2013-05-26 04:21:00,69.3,42.6,30.24,North,2,0.0,0.0,38,0.00,,---,0.00,VWS V14.01,2013-05-26 08:21:00,
2013-05-26 04:26:00,68.4,44.4,30.24,North,2,0.0,0.0,42,0.00,,---,0.00,VWS V14.01,2013-05-26 08:26:00,
2013-05-26 04:31:00,68.4,45.0,30.24,North,2,0.0,0.0,43,0.00,,---,0.00,VWS V14.01,2013-05-26 08:31:00,
2013-05-26 04:36:00,68.4,45.0,30.24,North,2,0.0,0.0,43,0.00,,---,0.00,VWS V14.01,2013-05-26 08:36:00,
2013-05-26 04:42:00,68.4,45.0,30.24,North,2,0.0,0.0,43,0.00,,---,0.00,VWS V14.01,2013-05-26 08:42:00,
2013-05-26 04:47:00,68.4,45.0,30.24,North,2,0.0,0.0,43,0.00,,---,0.00,VWS V14.01,2013-05-26 08:47:00,
2013-05-26 04:52:00,68.4,45.0,30.24,North,2,0.0,0.0,43,0.00,,---,0.00,VWS V14.01,2013-05-26 08:52:00,
2013-05-26 04:57:00,68.4,45.0,30.24,North,2,0.0,0.0,43,0.00,,---,0.00,VWS V14.01,2013-05-26 08:57:00,
2013-05-26 05:02:00,68.4,45.0,30.24,North,2,0.0,0.0,43,0.00,,---,0.00,VWS V14.01,2013-05-26 09:02:00,
2013-05-26 05:07:00,68.5,47.0,30.24,North,2,0.0,0.0,46,0.00,,---,0.00,VWS V14.01,2013-05-26 09:07:00,
2013-05-26 05:12:00,68.5,47.0,30.24,North,357,0.0,0.0,46,0.00,,---,0.00,VWS V14.01,2013-05-26 09:12:00,
2013-05-26 05:17:00,68.9,47.3,30.24,North,357,0.0,0.0,46,0.00,,---,0.00,VWS V14.01,2013-05-26 09:17:00,
2013-05-26 05:22:00,68.9,47.3,30.24,North,357,0.0,0.0,46,0.00,,---,0.00,VWS V14.01,2013-05-26 09:22:00,
2013-05-26 05:27:00,69.1,48.0,30.24,NW,313,0.0,0.0,47,0.00,,---,0.00,VWS V14.01,2013-05-26 09:27:00,
2013-05-26 05:32:00,69.3,47.6,30.24,NW,313,0.0,0.0,46,0.00,,---,0.00,VWS V14.01,2013-05-26 09:32:00,
2013-05-26 05:37:00,69.4,47.2,30.24,NW,313,0.0,0.0,45,0.00,,---,0.00,VWS V14.01,2013-05-26 09:37:00,
2013-05-26 05:42:00,69.4,47.2,30.24,NW,313,0.0,0.0,45,0.00,,---,0.00,VWS V14.01,2013-05-26 09:42:00,
2013-05-26 05:48:00,69.4,47.2,30.24,NW,313,0.0,0.0,45,0.00,,---,0.00,VWS V14.01,2013-05-26 09:48:00,
2013-05-26 05:53:00,69.4,47.2,30.24,NW,313,0.0,0.0,45,0.00,,---,0.00,VWS V14.01,2013-05-26 09:53:00,
2013-05-26 05:58:00,69.4,47.2,30.24,NW,313,0.0,0.0,45,0.00,,---,0.00,VWS V14.01,2013-05-26 09:58:00,
2013-05-26 06:03:00,69.4,47.2,30.24,NW,313,0.0,0.0,45,0.00,,---,0.00,VWS V14.01,2013-05-26 10:03:00,
2013-05-26 06:08:00,69.4,47.2,30.24,NW,313,0.0,0.0,45,0.00,,---,0.00,VWS V14.01,2013-05-26 10:08:00,
2013-05-26 06:13:00,69.4,47.2,30.24,NW,313,0.0,0.0,45,0.00,,---,0.00,VWS V14.01,2013-05-26 10:13:00,
2013-05-26 06:18:00,69.4,47.2,30.24,NW,313,0.0,0.0,45,0.00,,---,0.00,VWS V14.01,2013-05-26 10:18:00,
2013-05-26 06:23:00,69.1,48.6,30.24,NW,318,0.0,0.0,48,0.00,,---,0.00,VWS V14.01,2013-05-26 10:23:00,
2013-05-26 06:28:00,69.1,48.6,30.24,NW,318,0.0,0.0,48,0.00,,---,0.00,VWS V14.01,2013-05-26 10:28:00,
2013-05-26 06:33:00,69.1,48.6,30.24,NW,318,0.0,0.0,48,0.00,,---,0.00,VWS V14.01,2013-05-26 10:33:00,
2013-05-26 06:38:00,69.1,48.6,30.24,NNW,339,0.0,0.0,48,0.00,,---,0.00,VWS V14.01,2013-05-26 10:38:00,
2013-05-26 06:43:00,69.1,48.6,30.24,North,353,3.1,3.1,48,0.00,,---,0.00,VWS V14.01,2013-05-26 10:43:00,
2013-05-26 06:48:00,70.2,48.4,30.24,NNW,345,2.7,2.7,46,0.00,,---,0.00,VWS V14.01,2013-05-26 10:48:00,
2013-05-26 06:54:00,70.5,48.2,30.24,NNW,343,2.7,2.7,45,0.00,,---,0.00,VWS V14.01,2013-05-26 10:54:00,
2013-05-26 06:59:00,70.9,47.9,30.24,NNW,336,2.2,2.2,44,0.00,,---,0.00,VWS V14.01,2013-05-26 10:59:00,
2013-05-26 07:04:00,72.0,47.6,30.24,North,353,0.0,0.0,42,0.00,,---,0.00,VWS V14.01,2013-05-26 11:04:00,
2013-05-26 07:09:00,72.7,47.0,30.24,NNW,340,0.0,0.0,40,0.00,,---,0.00,VWS V14.01,2013-05-26 11:09:00,
2013-05-26 07:14:00,73.2,46.1,30.24,NNW,341,2.2,3.6,38,0.00,,---,0.00,VWS V14.01,2013-05-26 11:14:00,
2013-05-26 07:19:00,73.2,45.4,30.24,NNW,338,2.7,2.7,37,0.00,,---,0.00,VWS V14.01,2013-05-26 11:19:00,
2013-05-26 07:24:00,73.2,45.4,30.24,NNW,343,3.1,3.1,37,0.00,,---,0.00,VWS V14.01,2013-05-26 11:24:00,
2013-05-26 07:29:00,73.2,45.4,30.24,NNW,332,0.0,0.0,37,0.00,,---,0.00,VWS V14.01,2013-05-26 11:29:00,
2013-05-26 07:34:00,73.2,45.4,30.24,North,349,0.0,0.0,37,0.00,,---,0.00,VWS V14.01,2013-05-26 11:34:00,
2013-05-26 07:39:00,73.2,45.4,30.24,North,357,3.6,3.6,37,0.00,,---,0.00,VWS V14.01,2013-05-26 11:39:00,
2013-05-26 07:44:00,73.2,45.4,30.24,NNW,338,0.0,2.7,37,0.00,,---,0.00,VWS V14.01,2013-05-26 11:44:00,
2013-05-26 07:49:00,73.2,45.4,30.24,NW,322,3.6,3.6,37,0.00,,---,0.00,VWS V14.01,2013-05-26 11:49:00,
2013-05-26 07:54:00,73.2,45.4,30.24,NNW,336,2.7,2.7,37,0.00,,---,0.00,VWS V14.01,2013-05-26 11:54:00,
2013-05-26 07:59:00,73.2,45.4,30.24,NNW,336,0.0,0.0,37,0.00,,---,0.00,VWS V14.01,2013-05-26 11:59:00,
2013-05-26 08:04:00,76.1,44.9,30.24,NNW,340,2.7,2.7,33,0.00,,---,0.00,VWS V14.01,2013-05-26 12:04:00,
2013-05-26 08:10:00,76.1,44.9,30.24,NNW,329,0.0,0.0,33,0.00,,---,0.00,VWS V14.01,2013-05-26 12:10:00,
2013-05-26 08:15:00,76.1,44.9,30.24,NW,323,2.2,3.1,33,0.00,,---,0.00,VWS V14.01,2013-05-26 12:15:00,
2013-05-26 08:20:00,76.1,44.9,30.24,NNW,332,0.0,2.2,33,0.00,,---,0.00,VWS V14.01,2013-05-26 12:20:00,
2013-05-26 08:25:00,78.6,45.5,30.24,WNW,294,2.7,2.7,31,0.00,,---,0.00,VWS V14.01,2013-05-26 12:25:00,
2013-05-26 08:30:00,79.2,46.0,30.27,WNW,296,2.2,2.7,31,0.00,,---,0.00,VWS V14.01,2013-05-26 12:30:00,
2013-05-26 08:35:00,79.2,46.0,30.27,NNW,338,0.0,0.0,31,0.00,,---,0.00,VWS V14.01,2013-05-26 12:35:00,
2013-05-26 08:40:00,79.2,46.0,30.27,North,353,0.0,0.0,31,0.04,,---,0.04,VWS V14.01,2013-05-26 12:40:00,
2013-05-26 08:45:00,79.2,46.0,30.27,North,350,3.6,3.6,31,0.04,,---,0.04,VWS V14.01,2013-05-26 12:45:00,
2013-05-26 08:50:00,79.2,46.0,30.27,NNW,332,0.0,0.0,31,0.04,,---,0.04,VWS V14.01,2013-05-26 12:50:00,
2013-05-26 08:55:00,76.8,47.1,30.27,NNW,342,0.0,0.0,35,0.04,,---,0.04,VWS V14.01,2013-05-26 12:55:00,
2013-05-26 09:00:00,77.9,48.8,30.27,NW,326,0.0,0.0,36,0.04,,---,0.04,VWS V14.01,2013-05-26 13:00:00,
2013-05-26 09:05:00,79.0,46.6,30.27,North,1,2.7,2.7,32,0.04,,---,0.04,VWS V14.01,2013-05-26 13:05:00,
2013-05-26 09:10:00,79.3,45.2,30.27,SE,133,3.6,3.6,30,0.04,,---,0.04,VWS V14.01,2013-05-26 13:10:00,
2013-05-26 09:15:00,80.8,42.7,30.27,East,100,3.1,3.1,26,0.04,,---,0.04,VWS V14.01,2013-05-26 13:15:00,
2013-05-26 09:20:00,80.8,42.7,30.27,ENE,71,0.0,5.4,26,0.04,,---,0.04,VWS V14.01,2013-05-26 13:20:00,
2013-05-26 09:26:00,80.8,42.7,30.27,NE,48,3.6,3.6,26,0.04,,---,0.04,VWS V14.01,2013-05-26 13:26:00,
2013-05-26 09:31:00,80.8,42.7,30.27,East,80,5.4,5.8,26,0.04,,---,0.04,VWS V14.01,2013-05-26 13:31:00,
2013-05-26 09:36:00,81.1,41.0,30.27,SE,127,2.7,4.0,24,0.04,,---,0.04,VWS V14.01,2013-05-26 13:36:00,
2013-05-26 09:41:00,81.1,41.0,30.27,ENE,63,6.3,6.3,24,0.00,,---,0.04,VWS V14.01,2013-05-26 13:41:00,
2013-05-26 09:46:00,81.1,41.0,30.27,East,83,4.9,4.9,24,0.00,,---,0.04,VWS V14.01,2013-05-26 13:46:00,
2013-05-26 09:51:00,81.1,41.0,30.27,ESE,113,3.1,4.9,24,0.00,,---,0.04,VWS V14.01,2013-05-26 13:51:00,
2013-05-26 09:56:00,82.0,41.7,30.27,ESE,113,5.8,5.8,24,0.00,,---,0.04,VWS V14.01,2013-05-26 13:56:00,
2013-05-26 10:01:00,82.0,41.7,30.27,SE,133,5.4,5.4,24,0.00,,---,0.04,VWS V14.01,2013-05-26 14:01:00,
2013-05-26 10:06:00,82.0,40.6,30.27,ESE,108,5.8,7.2,23,0.00,,---,0.04,VWS V14.01,2013-05-26 14:06:00,
2013-05-26 10:11:00,82.0,40.6,30.27,SE,128,4.9,4.9,23,0.00,,---,0.04,VWS V14.01,2013-05-26 14:11:00,
2013-05-26 10:16:00,83.1,40.4,30.27,ESE,104,6.3,6.3,22,0.00,,---,0.04,VWS V14.01,2013-05-26 14:16:00,
2013-05-26 10:21:00,82.6,39.9,30.27,ENE,59,4.0,4.0,22,0.00,,---,0.04,VWS V14.01,2013-05-26 14:21:00,
2013-05-26 10:27:00,82.4,42.0,30.27,East,94,4.0,4.9,24,0.00,,---,0.04,VWS V14.01,2013-05-26 14:27:00,
2013-05-26 10:32:00,83.3,42.8,30.27,ESE,105,5.8,9.6,24,0.00,,---,0.04,VWS V14.01,2013-05-26 14:32:00,
2013-05-26 10:37:00,83.3,41.7,30.27,East,89,3.6,4.0,23,0.00,,---,0.04,VWS V14.01,2013-05-26 14:37:00,
2013-05-26 10:42:00,82.6,38.7,30.27,East,98,5.4,6.3,21,0.00,,---,0.04,VWS V14.01,2013-05-26 14:42:00,
2013-05-26 10:47:00,83.1,39.2,30.27,East,80,5.4,5.4,21,0.00,,---,0.04,VWS V14.01,2013-05-26 14:47:00,
2013-05-26 10:52:00,83.5,40.7,30.27,East,88,4.9,4.9,22,0.00,,---,0.04,VWS V14.01,2013-05-26 14:52:00,
2013-05-26 10:57:00,83.5,39.5,30.27,ESE,115,4.0,5.8,21,0.00,,---,0.04,VWS V14.01,2013-05-26 14:57:00,
2013-05-26 11:02:00,83.5,38.2,30.27,SE,138,4.0,4.0,20,0.00,,---,0.04,VWS V14.01,2013-05-26 15:02:00,
2013-05-26 11:07:00,83.5,38.2,30.27,NNE,19,4.5,4.5,20,0.00,,---,0.04,VWS V14.01,2013-05-26 15:07:00,
2013-05-26 11:12:00,83.3,39.3,30.30,ENE,65,3.6,3.6,21,0.00,,---,0.04,VWS V14.01,2013-05-26 15:12:00,
2013-05-26 11:17:00,83.3,39.3,30.30,ESE,103,3.6,3.6,21,0.00,,---,0.04,VWS V14.01,2013-05-26 15:17:00,
2013-05-26 11:22:00,83.3,39.3,30.30,NE,49,10.5,10.5,21,0.00,,---,0.04,VWS V14.01,2013-05-26 15:22:00,
2013-05-26 11:27:00,83.3,39.3,30.30,East,86,3.1,3.6,21,0.00,,---,0.04,VWS V14.01,2013-05-26 15:27:00,
2013-05-26 11:33:00,83.3,39.3,30.30,SE,126,10.5,10.5,21,0.00,,---,0.04,VWS V14.01,2013-05-26 15:33:00,
2013-05-26 11:38:00,83.3,39.3,30.30,East,97,8.3,8.3,21,0.00,,---,0.04,VWS V14.01,2013-05-26 15:38:00,
2013-05-26 11:43:00,83.3,39.3,30.30,NE,52,5.8,6.7,21,0.00,,---,0.04,VWS V14.01,2013-05-26 15:43:00,
2013-05-26 11:48:00,83.5,39.5,30.30,East,84,4.9,4.9,21,0.00,,---,0.04,VWS V14.01,2013-05-26 15:48:00,
2013-05-26 11:53:00,83.5,39.5,30.30,NNW,333,6.3,6.3,21,0.00,,---,0.04,VWS V14.01,2013-05-26 15:53:00,
2013-05-26 11:58:00,83.7,39.6,30.30,ENE,70,5.8,5.8,21,0.00,,---,0.04,VWS V14.01,2013-05-26 15:58:00,
2013-05-26 12:03:00,83.5,39.5,30.30,ENE,60,7.6,7.6,21,0.00,,---,0.04,VWS V14.01,2013-05-26 16:03:00,
2013-05-26 12:08:00,83.5,39.5,30.30,SE,136,6.3,6.3,21,0.00,,---,0.04,VWS V14.01,2013-05-26 16:08:00,
2013-05-26 12:13:00,84.2,38.8,30.30,SE,128,5.8,5.8,20,0.00,,---,0.04,VWS V14.01,2013-05-26 16:13:00,
2013-05-26 12:18:00,84.2,38.8,30.30,NE,49,5.8,5.8,20,0.00,,---,0.04,VWS V14.01,2013-05-26 16:18:00,
2013-05-26 12:23:00,84.2,38.8,30.30,SE,130,5.8,5.8,20,0.00,,---,0.04,VWS V14.01,2013-05-26 16:23:00,
2013-05-26 12:28:00,84.2,38.8,30.30,ENE,68,4.0,6.3,20,0.00,,---,0.04,VWS V14.01,2013-05-26 16:28:00,
2013-05-26 12:33:00,84.4,39.0,30.30,ENE,68,4.0,4.9,20,0.00,,---,0.04,VWS V14.01,2013-05-26 16:33:00,
2013-05-26 12:39:00,84.4,39.0,30.30,ENE,62,5.8,5.8,20,0.00,,---,0.04,VWS V14.01,2013-05-26 16:39:00,
2013-05-26 12:44:00,82.9,39.0,30.30,ENE,76,5.8,5.8,21,0.00,,---,0.04,VWS V14.01,2013-05-26 16:44:00,
2013-05-26 12:49:00,82.9,39.0,30.30,NNE,31,6.3,6.3,21,0.00,,---,0.04,VWS V14.01,2013-05-26 16:49:00,
2013-05-26 12:54:00,82.9,39.0,30.30,NNE,23,4.9,4.9,21,0.00,,---,0.04,VWS V14.01,2013-05-26 16:54:00,
2013-05-26 12:59:00,83.5,39.5,30.30,ESE,111,5.4,5.4,21,0.00,,---,0.04,VWS V14.01,2013-05-26 16:59:00,
2013-05-26 13:04:00,83.5,39.5,30.30,East,88,4.0,11.0,21,0.00,,---,0.04,VWS V14.01,2013-05-26 17:04:00,
2013-05-26 13:09:00,82.4,38.6,30.30,ENE,57,5.8,5.8,21,0.00,,---,0.04,VWS V14.01,2013-05-26 17:09:00,
2013-05-26 13:14:00,82.8,38.9,30.27,NE,34,5.8,5.8,21,0.00,,---,0.04,VWS V14.01,2013-05-26 17:14:00,
2013-05-26 13:19:00,82.8,38.9,30.27,ESE,102,5.4,5.4,21,0.00,,---,0.04,VWS V14.01,2013-05-26 17:19:00,
2013-05-26 13:24:00,82.8,38.9,30.27,ENE,61,3.6,3.6,21,0.00,,---,0.04,VWS V14.01,2013-05-26 17:24:00,
2013-05-26 13:29:00,83.8,39.8,30.27,East,79,4.0,4.0,21,0.00,,---,0.04,VWS V14.01,2013-05-26 17:29:00,
2013-05-26 13:34:00,84.0,41.1,30.27,ENE,65,7.6,7.6,22,0.00,,---,0.04,VWS V14.01,2013-05-26 17:34:00,
2013-05-26 13:40:00,83.8,39.8,30.27,East,97,6.3,6.3,21,0.00,,---,0.04,VWS V14.01,2013-05-26 17:40:00,
2013-05-26 13:45:00,83.8,39.8,30.27,South,172,6.3,6.3,21,0.00,,---,0.04,VWS V14.01,2013-05-26 17:45:00,
2013-05-26 13:50:00,82.6,38.7,30.27,NE,55,5.4,7.6,21,0.00,,---,0.04,VWS V14.01,2013-05-26 17:50:00,
2013-05-26 13:55:00,82.8,38.9,30.27,ENE,75,4.0,4.0,21,0.00,,---,0.04,VWS V14.01,2013-05-26 17:55:00,
2013-05-26 14:00:00,82.8,38.9,30.27,ESE,118,3.1,3.1,21,0.00,,---,0.04,VWS V14.01,2013-05-26 18:00:00,
2013-05-26 14:05:00,83.7,39.6,30.27,East,83,8.3,8.3,21,0.00,,---,0.04,VWS V14.01,2013-05-26 18:05:00,
2013-05-26 14:10:00,83.7,39.6,30.27,ESE,113,8.1,8.1,21,0.00,,---,0.04,VWS V14.01,2013-05-26 18:10:00,
2013-05-26 14:15:00,83.3,39.3,30.27,SE,131,8.1,8.3,21,0.00,,---,0.04,VWS V14.01,2013-05-26 18:15:00,
2013-05-26 14:20:00,82.6,38.7,30.27,ENE,67,8.1,8.1,21,0.00,,---,0.04,VWS V14.01,2013-05-26 18:20:00,
2013-05-26 14:25:00,82.6,38.7,30.27,East,93,8.3,8.3,21,0.00,,---,0.04,VWS V14.01,2013-05-26 18:25:00,
2013-05-26 14:30:00,82.6,38.7,30.27,ESE,122,5.8,6.3,21,0.00,,---,0.04,VWS V14.01,2013-05-26 18:30:00,
2013-05-26 14:35:00,82.6,38.7,30.27,NE,51,6.3,6.3,21,0.00,,---,0.04,VWS V14.01,2013-05-26 18:35:00,
2013-05-26 14:40:00,82.6,38.7,30.27,ENE,67,8.3,8.3,21,0.00,,---,0.04,VWS V14.01,2013-05-26 18:40:00,
2013-05-26 14:46:00,82.6,38.7,30.27,NE,55,6.3,6.3,21,0.00,,---,0.04,VWS V14.01,2013-05-26 18:46:00,
2013-05-26 14:51:00,82.6,38.7,30.27,NE,51,6.7,8.1,21,0.00,,---,0.04,VWS V14.01,2013-05-26 18:51:00,
2013-05-26 14:56:00,82.6,38.7,30.27,ESE,119,4.0,4.9,21,0.00,,---,0.04,VWS V14.01,2013-05-26 18:56:00,
2013-05-26 15:01:00,82.6,38.7,30.27,NNE,26,3.1,8.1,21,0.00,,---,0.04,VWS V14.01,2013-05-26 19:01:00,
2013-05-26 15:06:00,82.6,38.7,30.27,ENE,73,5.4,5.4,21,0.00,,---,0.04,VWS V14.01,2013-05-26 19:06:00,
2013-05-26 15:11:00,82.6,38.7,30.27,East,85,3.6,3.6,21,0.00,,---,0.04,VWS V14.01,2013-05-26 19:11:00,
2013-05-26 15:16:00,82.6,38.7,30.27,ENE,73,3.6,3.6,21,0.00,,---,0.04,VWS V14.01,2013-05-26 19:16:00,
2013-05-26 15:21:00,82.6,38.7,30.27,North,357,5.8,5.8,21,0.00,,---,0.04,VWS V14.01,2013-05-26 19:21:00,
2013-05-26 15:26:00,82.6,38.7,30.27,ESE,105,5.4,5.8,21,0.00,,---,0.04,VWS V14.01,2013-05-26 19:26:00,
2013-05-26 15:31:00,82.6,38.7,30.24,ESE,113,7.6,7.6,21,0.00,,---,0.04,VWS V14.01,2013-05-26 19:31:00,
2013-05-26 15:36:00,82.6,38.7,30.24,East,96,5.8,5.8,21,0.00,,---,0.04,VWS V14.01,2013-05-26 19:36:00,
2013-05-26 15:42:00,82.6,38.7,30.24,ENE,57,6.3,6.3,21,0.00,,---,0.04,VWS V14.01,2013-05-26 19:42:00,
2013-05-26 15:47:00,82.6,38.7,30.24,ENE,57,7.2,7.2,21,0.00,,---,0.04,VWS V14.01,2013-05-26 19:47:00,
2013-05-26 15:52:00,82.6,38.7,30.24,ENE,60,6.3,6.3,21,0.00,,---,0.04,VWS V14.01,2013-05-26 19:52:00,
2013-05-26 15:57:00,82.6,38.7,30.24,ENE,68,5.4,5.4,21,0.00,,---,0.04,VWS V14.01,2013-05-26 19:57:00,
2013-05-26 16:02:00,82.6,38.7,30.24,East,82,7.6,7.6,21,0.00,,---,0.04,VWS V14.01,2013-05-26 20:02:00,
2013-05-26 16:07:00,82.6,38.7,30.24,East,85,5.8,5.8,21,0.00,,---,0.04,VWS V14.01,2013-05-26 20:07:00,
2013-05-26 16:12:00,82.6,38.7,30.24,ENE,72,5.8,5.8,21,0.00,,---,0.04,VWS V14.01,2013-05-26 20:12:00,
2013-05-26 16:17:00,82.6,38.7,30.24,East,85,4.0,4.0,21,0.00,,---,0.04,VWS V14.01,2013-05-26 20:17:00,
2013-05-26 16:22:00,82.6,38.7,30.24,East,92,5.4,5.4,21,0.00,,---,0.04,VWS V14.01,2013-05-26 20:22:00,
2013-05-26 16:27:00,82.6,38.7,30.24,NE,36,2.7,2.7,21,0.00,,---,0.04,VWS V14.01,2013-05-26 20:27:00,
2013-05-26 16:32:00,82.6,38.7,30.24,ESE,104,5.4,5.4,21,0.00,,---,0.04,VWS V14.01,2013-05-26 20:32:00,
2013-05-26 16:37:00,82.6,38.7,30.24,SE,130,5.4,5.4,21,0.00,,---,0.04,VWS V14.01,2013-05-26 20:37:00,
2013-05-26 16:42:00,82.6,38.7,30.24,NE,53,5.8,5.8,21,0.00,,---,0.04,VWS V14.01,2013-05-26 20:42:00,
2013-05-26 16:47:00,82.6,38.7,30.24,ENE,76,8.1,8.1,21,0.00,,---,0.04,VWS V14.01,2013-05-26 20:47:00,
2013-05-26 16:52:00,82.6,38.7,30.24,NE,54,5.8,8.1,21,0.00,,---,0.04,VWS V14.01,2013-05-26 20:52:00,
2013-05-26 16:57:00,82.6,38.7,30.24,East,101,4.0,4.0,21,0.00,,---,0.04,VWS V14.01,2013-05-26 20:57:00,
2013-05-26 17:02:00,82.6,38.7,30.24,ENE,68,6.3,6.3,21,0.00,,---,0.04,VWS V14.01,2013-05-26 21:02:00,
2013-05-26 17:07:00,82.6,38.7,30.24,East,91,3.6,3.6,21,0.00,,---,0.04,VWS V14.01,2013-05-26 21:07:00,
2013-05-26 17:12:00,82.6,38.7,30.24,SE,144,8.1,8.1,21,0.00,,---,0.04,VWS V14.01,2013-05-26 21:12:00,
2013-05-26 17:18:00,82.6,38.7,30.24,NNE,19,2.7,2.7,21,0.00,,---,0.04,VWS V14.01,2013-05-26 21:18:00,
2013-05-26 17:23:00,82.6,38.7,30.24,NE,39,3.1,5.4,21,0.00,,---,0.04,VWS V14.01,2013-05-26 21:23:00,
2013-05-26 17:28:00,82.6,38.7,30.24,ENE,64,7.6,7.6,21,0.00,,---,0.04,VWS V14.01,2013-05-26 21:28:00,
2013-05-26 17:33:00,82.6,38.7,30.24,NE,56,3.1,3.1,21,0.00,,---,0.04,VWS V14.01,2013-05-26 21:33:00,
2013-05-26 17:38:00,82.6,38.7,30.24,ENE,60,6.3,6.3,21,0.00,,---,0.04,VWS V14.01,2013-05-26 21:38:00,
2013-05-26 17:43:00,82.6,38.7,30.24,NE,44,8.7,8.7,21,0.00,,---,0.04,VWS V14.01,2013-05-26 21:43:00,
2013-05-26 17:48:00,82.6,38.7,30.24,NE,47,8.1,8.1,21,0.00,,---,0.04,VWS V14.01,2013-05-26 21:48:00,
2013-05-26 17:53:00,82.6,38.7,30.24,ENE,73,8.1,8.1,21,0.00,,---,0.04,VWS V14.01,2013-05-26 21:53:00,
2013-05-26 17:58:00,82.6,38.7,30.24,East,93,6.3,6.3,21,0.00,,---,0.04,VWS V14.01,2013-05-26 21:58:00,
2013-05-26 18:03:00,82.6,38.7,30.24,NNE,25,6.3,6.3,21,0.00,,---,0.04,VWS V14.01,2013-05-26 22:03:00,
2013-05-26 18:08:00,82.6,38.7,30.24,ENE,71,4.0,10.1,21,0.00,,---,0.04,VWS V14.01,2013-05-26 22:08:00,
2013-05-26 18:13:00,82.6,38.7,30.24,ENE,57,6.3,6.3,21,0.00,,---,0.04,VWS V14.01,2013-05-26 22:13:00,
2013-05-26 18:18:00,82.6,38.7,30.24,East,85,5.4,5.4,21,0.00,,---,0.04,VWS V14.01,2013-05-26 22:18:00,
2013-05-26 18:23:00,82.6,38.7,30.24,NE,39,4.0,7.6,21,0.00,,---,0.04,VWS V14.01,2013-05-26 22:23:00,
2013-05-26 18:28:00,82.6,38.7,30.24,ENE,68,5.8,5.8,21,0.00,,---,0.04,VWS V14.01,2013-05-26 22:28:00,
2013-05-26 18:33:00,82.6,38.7,30.24,ENE,69,5.8,5.8,21,0.00,,---,0.04,VWS V14.01,2013-05-26 22:33:00,
2013-05-26 18:38:00,82.6,38.7,30.24,East,86,4.0,4.0,21,0.00,,---,0.04,VWS V14.01,2013-05-26 22:38:00,
2013-05-26 18:44:00,82.6,38.7,30.24,NE,50,3.1,5.4,21,0.00,,---,0.04,VWS V14.01,2013-05-26 22:44:00,
2013-05-26 18:49:00,82.6,38.7,30.24,ESE,104,7.2,7.2,21,0.00,,---,0.04,VWS V14.01,2013-05-26 22:49:00,
2013-05-26 18:54:00,82.6,38.7,30.24,East,85,4.0,5.4,21,0.00,,---,0.04,VWS V14.01,2013-05-26 22:54:00,
2013-05-26 18:59:00,82.6,38.7,30.24,ENE,75,5.4,8.1,21,0.00,,---,0.04,VWS V14.01,2013-05-26 22:59:00,
2013-05-26 19:04:00,82.6,38.7,30.24,SE,125,4.0,8.1,21,0.00,,---,0.04,VWS V14.01,2013-05-26 23:04:00,
2013-05-26 19:09:00,82.6,38.7,30.24,North,357,4.0,4.0,21,0.00,,---,0.04,VWS V14.01,2013-05-26 23:09:00,
2013-05-26 19:14:00,82.6,38.7,30.21,East,79,5.4,5.4,21,0.00,,---,0.04,VWS V14.01,2013-05-26 23:14:00,
2013-05-26 19:19:00,82.6,38.7,30.21,NE,51,5.4,5.4,21,0.00,,---,0.04,VWS V14.01,2013-05-26 23:19:00,
2013-05-26 19:24:00,82.6,38.7,30.21,NE,45,4.0,4.0,21,0.00,,---,0.04,VWS V14.01,2013-05-26 23:24:00,
2013-05-26 19:29:00,82.6,38.7,30.24,ENE,73,4.0,4.0,21,0.00,,---,0.04,VWS V14.01,2013-05-26 23:29:00,
2013-05-26 19:34:00,82.6,38.7,30.24,East,84,5.8,5.8,21,0.00,,---,0.04,VWS V14.01,2013-05-26 23:34:00,
2013-05-26 19:39:00,82.6,38.7,30.24,ENE,71,3.1,4.0,21,0.00,,---,0.04,VWS V14.01,2013-05-26 23:39:00,
2013-05-26 19:44:00,82.6,38.7,30.24,NNE,22,2.7,2.7,21,0.00,,---,0.04,VWS V14.01,2013-05-26 23:44:00,
2013-05-26 19:49:00,82.6,38.7,30.24,ENE,74,6.3,6.3,21,0.00,,---,0.04,VWS V14.01,2013-05-26 23:49:00,
2013-05-26 19:55:00,82.6,38.7,30.24,ENE,62,5.4,5.8,21,0.00,,---,0.04,VWS V14.01,2013-05-26 23:55:00,
2013-05-26 20:00:00,82.6,38.7,30.24,NNE,30,3.6,3.6,21,0.00,,---,0.04,VWS V14.01,2013-05-27 00:00:00,
2013-05-26 20:05:00,82.6,38.7,30.24,East,90,4.9,4.9,21,0.00,,---,0.04,VWS V14.01,2013-05-27 00:05:00,
2013-05-26 20:10:00,82.6,38.7,30.24,East,85,3.6,5.4,21,0.00,,---,0.04,VWS V14.01,2013-05-27 00:10:00,
2013-05-26 20:15:00,82.6,38.7,30.24,ENE,59,2.7,2.7,21,0.00,,---,0.04,VWS V14.01,2013-05-27 00:15:00,
2013-05-26 20:20:00,82.6,38.7,30.24,ENE,64,2.7,3.6,21,0.00,,---,0.04,VWS V14.01,2013-05-27 00:20:00,
2013-05-26 20:25:00,82.6,38.7,30.24,ENE,67,6.3,6.3,21,0.00,,---,0.04,VWS V14.01,2013-05-27 00:25:00,
2013-05-26 20:31:00,82.6,38.7,30.24,East,91,2.7,5.4,21,0.00,,---,0.04,VWS V14.01,2013-05-27 00:31:00,
2013-05-26 20:36:00,82.6,38.7,30.24,ENE,68,5.4,5.4,21,0.00,,---,0.04,VWS V14.01,2013-05-27 00:36:00,
2013-05-26 20:41:00,82.6,38.7,30.24,East,81,4.0,4.0,21,0.00,,---,0.04,VWS V14.01,2013-05-27 00:41:00,
2013-05-26 20:46:00,82.6,38.7,30.24,East,83,5.4,6.3,21,0.00,,---,0.04,VWS V14.01,2013-05-27 00:46:00,
2013-05-26 20:51:00,82.6,38.7,30.24,East,82,4.9,4.9,21,0.00,,---,0.04,VWS V14.01,2013-05-27 00:51:00,
2013-05-26 20:56:00,82.6,38.7,30.24,ENE,62,3.1,3.1,21,0.00,,---,0.04,VWS V14.01,2013-05-27 00:56:00,
2013-05-26 21:01:00,82.6,38.7,30.24,North,357,3.1,3.1,21,0.00,,---,0.04,VWS V14.01,2013-05-27 01:01:00,
2013-05-26 21:06:00,82.6,38.7,30.24,NNE,32,4.9,4.9,21,0.00,,---,0.04,VWS V14.01,2013-05-27 01:06:00,
2013-05-26 21:11:00,82.6,38.7,30.27,ENE,68,4.0,4.0,21,0.00,,---,0.04,VWS V14.01,2013-05-27 01:11:00,
2013-05-26 21:16:00,82.6,38.7,30.27,NE,48,6.3,6.3,21,0.00,,---,0.04,VWS V14.01,2013-05-27 01:16:00,
2013-05-26 21:21:00,82.6,38.7,30.27,North,11,2.7,2.7,21,0.00,,---,0.04,VWS V14.01,2013-05-27 01:21:00,
2013-05-26 21:26:00,82.6,38.7,30.27,NE,46,2.7,2.7,21,0.00,,---,0.04,VWS V14.01,2013-05-27 01:26:00,
2013-05-26 21:31:00,82.6,38.7,30.27,East,98,0.0,0.0,21,0.00,,---,0.04,VWS V14.01,2013-05-27 01:31:00,
2013-05-26 21:36:00,82.6,38.7,30.27,NE,50,4.9,4.9,21,0.00,,---,0.04,VWS V14.01,2013-05-27 01:36:00,
2013-05-26 21:41:00,82.6,38.7,30.27,ENE,61,2.2,2.2,21,0.00,,---,0.04,VWS V14.01,2013-05-27 01:41:00,
2013-05-26 21:46:00,82.6,38.7,30.27,ENE,59,6.3,6.3,21,0.00,,---,0.04,VWS V14.01,2013-05-27 01:46:00,
2013-05-26 21:51:00,82.6,38.7,30.27,ENE,72,2.7,2.7,21,0.00,,---,0.04,VWS V14.01,2013-05-27 01:51:00,
2013-05-26 21:56:00,82.6,38.7,30.27,NE,37,3.1,4.0,21,0.00,,---,0.04,VWS V14.01,2013-05-27 01:56:00,
2013-05-26 22:01:00,82.6,38.7,30.27,NNE,33,3.1,3.1,21,0.00,,---,0.04,VWS V14.01,2013-05-27 02:01:00,
2013-05-26 22:06:00,82.6,38.7,30.27,NE,46,2.7,2.7,21,0.00,,---,0.04,VWS V14.01,2013-05-27 02:06:00,
2013-05-26 22:11:00,82.6,38.7,30.27,ENE,66,6.3,6.3,21,0.00,,---,0.04,VWS V14.01,2013-05-27 02:11:00,
2013-05-26 22:16:00,82.6,38.7,30.24,East,82,2.7,2.7,21,0.00,,---,0.04,VWS V14.01,2013-05-27 02:16:00,
2013-05-26 22:21:00,82.6,38.7,30.24,East,86,3.1,3.1,21,0.00,,---,0.04,VWS V14.01,2013-05-27 02:21:00,
2013-05-26 22:27:00,82.6,38.7,30.27,NE,51,4.0,4.0,21,0.00,,---,0.04,VWS V14.01,2013-05-27 02:27:00,
2013-05-26 22:32:00,82.6,38.7,30.27,East,97,5.8,5.8,21,0.00,,---,0.04,VWS V14.01,2013-05-27 02:32:00,
2013-05-26 22:37:00,82.6,38.7,30.27,ENE,72,2.7,3.6,21,0.00,,---,0.04,VWS V14.01,2013-05-27 02:37:00,
2013-05-26 22:42:00,82.6,38.7,30.27,NE,52,3.6,4.0,21,0.00,,---,0.04,VWS V14.01,2013-05-27 02:42:00,
2013-05-26 22:47:00,82.6,38.7,30.27,ENE,68,3.1,3.1,21,0.00,,---,0.04,VWS V14.01,2013-05-27 02:47:00,
2013-05-26 22:52:00,82.6,38.7,30.27,East,98,4.0,4.0,21,0.00,,---,0.04,VWS V14.01,2013-05-27 02:52:00,
2013-05-26 22:57:00,82.6,38.7,30.27,East,89,2.7,2.7,21,0.00,,---,0.04,VWS V14.01,2013-05-27 02:57:00,
2013-05-26 23:02:00,82.6,38.7,30.27,ESE,105,4.0,4.0,21,0.00,,---,0.04,VWS V14.01,2013-05-27 03:02:00,
2013-05-26 23:07:00,82.6,38.7,30.27,NNE,33,3.6,4.0,21,0.00,,---,0.04,VWS V14.01,2013-05-27 03:07:00,
2013-05-26 23:12:00,82.6,38.7,30.27,ENE,68,5.8,5.8,21,0.00,,---,0.04,VWS V14.01,2013-05-27 03:12:00,
2013-05-26 23:17:00,82.6,38.7,30.27,ENE,64,5.4,5.4,21,0.00,,---,0.04,VWS V14.01,2013-05-27 03:17:00,
2013-05-26 23:22:00,82.6,38.7,30.27,ENE,76,3.1,3.1,21,0.00,,---,0.04,VWS V14.01,2013-05-27 03:22:00,
2013-05-26 23:27:00,82.6,38.7,30.27,ESE,116,3.6,3.6,21,0.00,,---,0.04,VWS V14.01,2013-05-27 03:27:00,
2013-05-26 23:32:00,82.6,38.7,30.27,NE,44,4.0,4.0,21,0.00,,---,0.04,VWS V14.01,2013-05-27 03:32:00,
2013-05-26 23:37:00,82.6,38.7,30.27,NE,56,5.8,5.8,21,0.00,,---,0.04,VWS V14.01,2013-05-27 03:37:00,
2013-05-26 23:42:00,82.6,38.7,30.27,NE,55,4.9,4.9,21,0.00,,---,0.04,VWS V14.01,2013-05-27 03:42:00,
2013-05-26 23:47:00,82.6,38.7,30.27,ENE,73,2.2,2.2,21,0.00,,---,0.04,VWS V14.01,2013-05-27 03:47:00,
2013-05-26 23:52:00,82.6,38.7,30.27,ENE,73,3.1,3.1,21,0.00,,---,0.04,VWS V14.01,2013-05-27 03:52:00,
2013-05-26 23:57:00,82.6,38.7,30.27,NE,40,3.6,3.6,21,0.00,,---,0.04,VWS V14.01,2013-05-27 03:57:00,